Crossville, TN (38557)

5:08 AM CDT on May 27, 2015 (GMT -0500)
Pottersville | | Change Station
CLOSE
Current Station
Personal Weather Station
Location: Crossville, TN
Elevation: 1811 ft
Nearby Weather Stations

Elev 1811 ft 36.01 °N, 84.95 °W | Updated 10 minutes ago

Partly Cloudy
Partly Cloudy
60.4 °F
Feels Like 60.4 °F
N
0.0
Wind Variable Wind from West

Today
High -- | Low -- °F
--% Chance of Precip.
Yesterday
High -- | Low -- °F
Precip. -- in
5:26 AM 7:47 PM
Waxing Gibbous, 66% visible
Pressure 30.14 in
Visibility 10.0 miles
Clouds Clear
Dew Point 60 °F
Humidity 99%
Rainfall 0.00 in
Snow Depth Not available.
UV 0 out of 12
Pollen 1.90 out of 12
Air Quality Not available.
Flu Activity Sporadic
METAR KCSV 270853Z AUTO VRB03KT 10SM CLR 18/16 A3020 RMK AO2 SLP207 T01780161 55001

More Conditions Fewer Conditions

Pressure 30.14 in
Visibility 10.0 miles
Clouds Clear
Dew Point 60 °F
Humidity 99%
Rainfall 0.00 in
Snow Depth Not available.
UV 0 out of 12
Pollen 1.90 out of 12
Air Quality Not available.
Flu Activity Sporadic
METAR KCSV 270853Z AUTO VRB03KT 10SM CLR 18/16 A3020 RMK AO2 SLP207 T01780161 55001

More Conditions Fewer Conditions

10-Day Weather Forecast

Almanac

Astronomy

May. 27, 2015 Rise Set
Actual Time
Civil Twilight
Nautical Twilight
Astronomical Twilight
Moon
Length of Visible Light
Length of Day
Tomorrow will be .
, % of the Moon is Illuminated

Today's Extremes

State Highs State Lows

Community

WunderPhotos

Upload Photos

1,824,635 photos uploaded!

WunderBlogs® & News

Nearby

Air Quality

  Air Quality AQ Index Pollutant
Not available.

Snow Depth

Station Depth Elevation

Earthquake Activity

City Distance Mag. Time & Date
Minimum magnitude displayed is 2.5.

Coastal Water Temperatures

Place Temperature

Stations

Nearby Weather Stations

Station Location Temp. Windchill Dew Point Humidity Wind Precip. Elev Updated Type